sensor_id;sensor_type;location;lat;lon;timestamp;pressure;altitude;pressure_sealevel;temperature;humidity
4570;BME280;2297;51.442;6.996;2023-06-10T00:02:23;100197.16;;;23.51;33.40
4570;BME280;2297;51.442;6.996;2023-06-10T00:04:50;100199.72;;;23.53;33.46
4570;BME280;2297;51.442;6.996;2023-06-10T00:07:17;100200.94;;;23.49;33.58
4570;BME280;2297;51.442;6.996;2023-06-10T00:09:44;100201.16;;;23.46;33.53
4570;BME280;2297;51.442;6.996;2023-06-10T00:12:11;100200.56;;;23.42;33.81
4570;BME280;2297;51.442;6.996;2023-06-10T00:14:38;100202.16;;;23.45;33.82
4570;BME280;2297;51.442;6.996;2023-06-10T00:17:07;100208.00;;;23.38;33.76
4570;BME280;2297;51.442;6.996;2023-06-10T00:19:35;100201.13;;;23.34;33.97
4570;BME280;2297;51.442;6.996;2023-06-10T00:22:02;100203.41;;;23.28;33.82
4570;BME280;2297;51.442;6.996;2023-06-10T00:24:30;100201.19;;;23.21;34.19
4570;BME280;2297;51.442;6.996;2023-06-10T00:26:56;100200.78;;;23.15;34.21
4570;BME280;2297;51.442;6.996;2023-06-10T00:29:23;100200.06;;;23.13;34.43
4570;BME280;2297;51.442;6.996;2023-06-10T00:31:49;100199.06;;;23.14;34.44
4570;BME280;2297;51.442;6.996;2023-06-10T00:34:20;100190.03;;;23.15;34.41
4570;BME280;2297;51.442;6.996;2023-06-10T00:36:47;100195.66;;;23.12;34.42
4570;BME280;2297;51.442;6.996;2023-06-10T00:39:14;100193.91;;;23.10;34.62
4570;BME280;2297;51.442;6.996;2023-06-10T00:41:40;100200.06;;;23.13;34.66
4570;BME280;2297;51.442;6.996;2023-06-10T00:44:07;100195.97;;;23.07;34.70
4570;BME280;2297;51.442;6.996;2023-06-10T00:46:34;100196.34;;;23.02;34.84
4570;BME280;2297;51.442;6.996;2023-06-10T00:49:01;100210.25;;;22.96;35.08
4570;BME280;2297;51.442;6.996;2023-06-10T00:51:29;100202.19;;;22.96;34.83
4570;BME280;2297;51.442;6.996;2023-06-10T00:53:56;100200.44;;;22.95;35.20
4570;BME280;2297;51.442;6.996;2023-06-10T00:56:22;100206.19;;;22.90;35.37
4570;BME280;2297;51.442;6.996;2023-06-10T00:58:50;100209.75;;;22.91;35.31
4570;BME280;2297;51.442;6.996;2023-06-10T01:01:17;100207.03;;;22.91;35.36
4570;BME280;2297;51.442;6.996;2023-06-10T01:03:45;100210.22;;;22.85;35.42
4570;BME280;2297;51.442;6.996;2023-06-10T01:06:18;100204.84;;;22.85;35.62
4570;BME280;2297;51.442;6.996;2023-06-10T01:08:55;100201.38;;;22.83;35.73
4570;BME280;2297;51.442;6.996;2023-06-10T01:11:28;100205.28;;;22.79;36.05
4570;BME280;2297;51.442;6.996;2023-06-10T01:13:58;100214.56;;;22.74;36.25
4570;BME280;2297;51.442;6.996;2023-06-10T01:16:25;100218.44;;;22.70;36.38
4570;BME280;2297;51.442;6.996;2023-06-10T01:18:51;100213.28;;;22.67;36.57
4570;BME280;2297;51.442;6.996;2023-06-10T01:21:21;100213.28;;;22.67;36.50
4570;BME280;2297;51.442;6.996;2023-06-10T01:23:50;100216.41;;;22.61;36.87
4570;BME280;2297;51.442;6.996;2023-06-10T01:26:19;100217.94;;;22.52;37.08
4570;BME280;2297;51.442;6.996;2023-06-10T01:28:48;100216.56;;;22.47;37.19
4570;BME280;2297;51.442;6.996;2023-06-10T01:31:25;100216.66;;;22.45;37.23
4570;BME280;2297;51.442;6.996;2023-06-10T01:34:00;100215.06;;;22.42;37.35
4570;BME280;2297;51.442;6.996;2023-06-10T01:36:48;100210.88;;;22.38;37.48
4570;BME280;2297;51.442;6.996;2023-06-10T01:39:17;100215.50;;;22.36;37.56
4570;BME280;2297;51.442;6.996;2023-06-10T01:41:44;100209.34;;;22.34;37.58
4570;BME280;2297;51.442;6.996;2023-06-10T01:44:10;100219.50;;;22.31;37.45
4570;BME280;2297;51.442;6.996;2023-06-10T01:46:40;100215.06;;;22.30;37.79
4570;BME280;2297;51.442;6.996;2023-06-10T01:49:07;100215.63;;;22.22;37.80
4570;BME280;2297;51.442;6.996;2023-06-10T01:51:33;100207.78;;;22.19;38.03
4570;BME280;2297;51.442;6.996;2023-06-10T01:54:01;100209.59;;;22.18;37.90
4570;BME280;2297;51.442;6.996;2023-06-10T01:56:28;100222.19;;;22.18;38.01
4570;BME280;2297;51.442;6.996;2023-06-10T01:58:54;100220.94;;;22.10;38.13
4570;BME280;2297;51.442;6.996;2023-06-10T02:01:24;100217.88;;;22.15;38.12
4570;BME280;2297;51.442;6.996;2023-06-10T02:03:51;100222.84;;;22.08;38.40
4570;BME280;2297;51.442;6.996;2023-06-10T02:06:17;100218.53;;;22.06;38.49
4570;BME280;2297;51.442;6.996;2023-06-10T02:08:44;100226.03;;;22.01;38.53
4570;BME280;2297;51.442;6.996;2023-06-10T02:11:12;100219.94;;;21.99;38.76
4570;BME280;2297;51.442;6.996;2023-06-10T02:13:39;100222.06;;;21.93;38.85
4570;BME280;2297;51.442;6.996;2023-06-10T02:16:05;100224.34;;;21.87;39.19
4570;BME280;2297;51.442;6.996;2023-06-10T02:18:32;100220.88;;;21.85;38.92
4570;BME280;2297;51.442;6.996;2023-06-10T02:20:59;100224.00;;;21.78;39.28
4570;BME280;2297;51.442;6.996;2023-06-10T02:23:26;100224.53;;;21.84;39.23
4570;BME280;2297;51.442;6.996;2023-06-10T02:25:52;100235.28;;;21.84;39.25
4570;BME280;2297;51.442;6.996;2023-06-10T02:28:20;100226.69;;;21.78;39.26
4570;BME280;2297;51.442;6.996;2023-06-10T02:30:47;100228.09;;;21.71;39.38
4570;BME280;2297;51.442;6.996;2023-06-10T02:33:13;100230.78;;;21.71;39.46
4570;BME280;2297;51.442;6.996;2023-06-10T02:35:40;100227.22;;;21.71;39.51
4570;BME280;2297;51.442;6.996;2023-06-10T02:38:07;100231.63;;;21.72;39.51
4570;BME280;2297;51.442;6.996;2023-06-10T02:40:34;100220.97;;;21.70;39.46
4570;BME280;2297;51.442;6.996;2023-06-10T02:43:00;100223.13;;;21.65;39.42
4570;BME280;2297;51.442;6.996;2023-06-10T02:45:28;100227.53;;;21.66;39.62
4570;BME280;2297;51.442;6.996;2023-06-10T02:47:55;100229.50;;;21.64;39.68
4570;BME280;2297;51.442;6.996;2023-06-10T02:50:22;100226.56;;;21.67;39.62
4570;BME280;2297;51.442;6.996;2023-06-10T02:52:48;100227.22;;;21.58;39.88
4570;BME280;2297;51.442;6.996;2023-06-10T02:55:15;100224.75;;;21.55;39.92
4570;BME280;2297;51.442;6.996;2023-06-10T02:57:42;100221.50;;;21.50;39.95
4570;BME280;2297;51.442;6.996;2023-06-10T03:00:09;100221.50;;;21.50;40.06
4570;BME280;2297;51.442;6.996;2023-06-10T03:02:38;100223.44;;;21.48;40.08
4570;BME280;2297;51.442;6.996;2023-06-10T03:05:07;100221.50;;;21.22;40.46
4570;BME280;2297;51.442;6.996;2023-06-10T03:07:35;100230.59;;;21.34;40.38
4570;BME280;2297;51.442;6.996;2023-06-10T03:10:02;100230.50;;;21.36;40.59
4570;BME280;2297;51.442;6.996;2023-06-10T03:12:29;100225.00;;;21.37;40.43
4570;BME280;2297;51.442;6.996;2023-06-10T03:14:56;100226.00;;;21.36;40.61
4570;BME280;2297;51.442;6.996;2023-06-10T03:17:22;100231.38;;;21.36;40.59
4570;BME280;2297;51.442;6.996;2023-06-10T03:19:50;100227.16;;;21.32;40.68
4570;BME280;2297;51.442;6.996;2023-06-10T03:22:17;100235.28;;;21.31;40.65
4570;BME280;2297;51.442;6.996;2023-06-10T03:24:43;100225.59;;;21.28;40.92
4570;BME280;2297;51.442;6.996;2023-06-10T03:27:12;100228.91;;;21.19;41.19
4570;BME280;2297;51.442;6.996;2023-06-10T03:29:40;100235.34;;;21.16;41.19
4570;BME280;2297;51.442;6.996;2023-06-10T03:32:07;100236.44;;;21.14;41.37
4570;BME280;2297;51.442;6.996;2023-06-10T03:34:34;100232.75;;;21.15;41.42
4570;BME280;2297;51.442;6.996;2023-06-10T03:37:02;100236.84;;;21.07;41.49
4570;BME280;2297;51.442;6.996;2023-06-10T03:39:29;100236.16;;;21.04;41.77
4570;BME280;2297;51.442;6.996;2023-06-10T03:41:55;100244.13;;;21.05;41.70
4570;BME280;2297;51.442;6.996;2023-06-10T03:44:24;100229.06;;;21.03;41.74
4570;BME280;2297;51.442;6.996;2023-06-10T03:46:51;100235.31;;;21.03;41.84
4570;BME280;2297;51.442;6.996;2023-06-10T03:49:18;100240.13;;;20.98;42.08
4570;BME280;2297;51.442;6.996;2023-06-10T03:51:44;100240.34;;;20.95;42.14
4570;BME280;2297;51.442;6.996;2023-06-10T03:54:12;100250.31;;;20.93;42.12
4570;BME280;2297;51.442;6.996;2023-06-10T03:56:39;100244.94;;;20.93;42.14
4570;BME280;2297;51.442;6.996;2023-06-10T03:59:06;100241.47;;;20.91;42.07
4570;BME280;2297;51.442;6.996;2023-06-10T04:01:32;100247.63;;;20.93;42.21
4570;BME280;2297;51.442;6.996;2023-06-10T04:04:00;100251.38;;;20.90;42.50
4570;BME280;2297;51.442;6.996;2023-06-10T04:06:27;100241.47;;;20.91;42.71
4570;BME280;2297;51.442;6.996;2023-06-10T04:08:54;100252.63;;;20.85;42.66
4570;BME280;2297;51.442;6.996;2023-06-10T04:11:23;100251.75;;;20.84;42.73
4570;BME280;2297;51.442;6.996;2023-06-10T04:13:51;100254.38;;;20.86;42.74
4570;BME280;2297;51.442;6.996;2023-06-10T04:16:17;100254.16;;;20.89;42.57
4570;BME280;2297;51.442;6.996;2023-06-10T04:18:44;100256.63;;;20.92;42.77
4570;BME280;2297;51.442;6.996;2023-06-10T04:21:10;100259.53;;;20.89;42.79
4570;BME280;2297;51.442;6.996;2023-06-10T04:23:37;100257.03;;;20.86;43.05
4570;BME280;2297;51.442;6.996;2023-06-10T04:26:04;100256.47;;;20.81;43.16
4570;BME280;2297;51.442;6.996;2023-06-10T04:28:33;100257.31;;;20.81;43.26
4570;BME280;2297;51.442;6.996;2023-06-10T04:31:01;100259.91;;;20.83;43.28
4570;BME280;2297;51.442;6.996;2023-06-10T04:33:29;100265.47;;;20.80;43.39
4570;BME280;2297;51.442;6.996;2023-06-10T04:35:56;100254.28;;;20.73;43.53
4570;BME280;2297;51.442;6.996;2023-06-10T04:38:22;100266.53;;;20.77;43.46
4570;BME280;2297;51.442;6.996;2023-06-10T04:40:49;100267.22;;;20.81;43.38
4570;BME280;2297;51.442;6.996;2023-06-10T04:43:16;100261.84;;;20.81;43.39
4570;BME280;2297;51.442;6.996;2023-06-10T04:45:44;100269.69;;;20.84;43.38
4570;BME280;2297;51.442;6.996;2023-06-10T04:48:11;100267.00;;;20.84;43.34
4570;BME280;2297;51.442;6.996;2023-06-10T04:50:37;100269.47;;;20.87;43.49
4570;BME280;2297;51.442;6.996;2023-06-10T04:53:04;100259.72;;;20.86;43.36
4570;BME280;2297;51.442;6.996;2023-06-10T04:55:31;100273.03;;;20.87;43.11
4570;BME280;2297;51.442;6.996;2023-06-10T04:57:58;100267.78;;;20.86;42.67
4570;BME280;2297;51.442;6.996;2023-06-10T05:00:25;100271.69;;;20.80;42.49
4570;BME280;2297;51.442;6.996;2023-06-10T05:02:53;100265.69;;;20.76;42.46
4570;BME280;2297;51.442;6.996;2023-06-10T05:05:21;100268.56;;;20.73;42.29
4570;BME280;2297;51.442;6.996;2023-06-10T05:07:48;100260.50;;;20.73;42.06
4570;BME280;2297;51.442;6.996;2023-06-10T05:10:14;100261.56;;;20.71;41.86
4570;BME280;2297;51.442;6.996;2023-06-10T05:12:41;100262.81;;;20.80;41.70
4570;BME280;2297;51.442;6.996;2023-06-10T05:15:08;100266.34;;;20.80;41.33
4570;BME280;2297;51.442;6.996;2023-06-10T05:17:35;100270.50;;;20.71;41.48
4570;BME280;2297;51.442;6.996;2023-06-10T05:20:04;100267.81;;;20.71;41.25
4570;BME280;2297;51.442;6.996;2023-06-10T05:22:31;100269.72;;;20.69;41.10
4570;BME280;2297;51.442;6.996;2023-06-10T05:24:58;100268.66;;;20.72;41.06
4570;BME280;2297;51.442;6.996;2023-06-10T05:27:24;100271.06;;;20.76;40.79
4570;BME280;2297;51.442;6.996;2023-06-10T05:29:51;100266.22;;;20.82;40.72
4570;BME280;2297;51.442;6.996;2023-06-10T05:32:18;100263.53;;;20.82;40.70
4570;BME280;2297;51.442;6.996;2023-06-10T05:34:45;100267.69;;;20.87;40.74
4570;BME280;2297;51.442;6.996;2023-06-10T05:37:13;100271.88;;;20.91;40.77
4570;BME280;2297;51.442;6.996;2023-06-10T05:39:40;100268.53;;;20.88;40.65
4570;BME280;2297;51.442;6.996;2023-06-10T05:42:07;100262.78;;;20.94;40.38
4570;BME280;2297;51.442;6.996;2023-06-10T05:44:34;100273.28;;;20.97;40.43
4570;BME280;2297;51.442;6.996;2023-06-10T05:47:01;100272.34;;;20.98;40.34
4570;BME280;2297;51.442;6.996;2023-06-10T05:49:27;100267.53;;;21.03;40.32
4570;BME280;2297;51.442;6.996;2023-06-10T05:51:54;100270.09;;;21.05;40.31
4570;BME280;2297;51.442;6.996;2023-06-10T05:54:24;100271.63;;;21.09;40.07
4570;BME280;2297;51.442;6.996;2023-06-10T05:56:51;100270.78;;;21.08;39.89
4570;BME280;2297;51.442;6.996;2023-06-10T05:59:17;100278.50;;;21.13;39.56
4570;BME280;2297;51.442;6.996;2023-06-10T06:01:44;100268.44;;;21.17;39.21
4570;BME280;2297;51.442;6.996;2023-06-10T06:04:10;100285.22;;;21.20;39.19
4570;BME280;2297;51.442;6.996;2023-06-10T06:06:38;100283.59;;;21.18;39.20
4570;BME280;2297;51.442;6.996;2023-06-10T06:09:05;100288.75;;;21.21;38.97
4570;BME280;2297;51.442;6.996;2023-06-10T06:11:33;100276.63;;;21.28;38.46
4570;BME280;2297;51.442;6.996;2023-06-10T06:14:00;100276.72;;;21.26;38.41
4570;BME280;2297;51.442;6.996;2023-06-10T06:16:27;100274.72;;;21.30;38.14
4570;BME280;2297;51.442;6.996;2023-06-10T06:18:53;100278.66;;;21.39;37.66
4570;BME280;2297;51.442;6.996;2023-06-10T06:21:20;100276.81;;;21.39;37.45
4570;BME280;2297;51.442;6.996;2023-06-10T06:23:47;100278.88;;;21.49;37.38
4570;BME280;2297;51.442;6.996;2023-06-10T06:26:13;100285.75;;;21.53;37.29
4570;BME280;2297;51.442;6.996;2023-06-10T06:28:41;100278.88;;;21.49;37.29
4570;BME280;2297;51.442;6.996;2023-06-10T06:31:08;100274.63;;;21.59;37.00
4570;BME280;2297;51.442;6.996;2023-06-10T06:33:35;100280.72;;;21.61;37.12
4570;BME280;2297;51.442;6.996;2023-06-10T06:36:01;100282.16;;;21.67;36.88
4570;BME280;2297;51.442;6.996;2023-06-10T06:38:28;100282.78;;;21.70;36.84
4570;BME280;2297;51.442;6.996;2023-06-10T06:40:55;100284.09;;;21.77;36.75
4570;BME280;2297;51.442;6.996;2023-06-10T06:43:21;100282.91;;;21.82;36.48
4570;BME280;2297;51.442;6.996;2023-06-10T06:45:50;100289.25;;;21.81;36.72
4570;BME280;2297;51.442;6.996;2023-06-10T06:48:17;100292.72;;;21.83;36.42
4570;BME280;2297;51.442;6.996;2023-06-10T06:50:43;100283.66;;;21.84;36.48
4570;BME280;2297;51.442;6.996;2023-06-10T06:53:10;100283.47;;;21.87;36.16
4570;BME280;2297;51.442;6.996;2023-06-10T06:55:36;100287.56;;;21.92;36.02
4570;BME280;2297;51.442;6.996;2023-06-10T06:58:03;100284.75;;;21.94;36.13
4570;BME280;2297;51.442;6.996;2023-06-10T07:00:30;100288.84;;;22.00;36.30
4570;BME280;2297;51.442;6.996;2023-06-10T07:02:58;100287.59;;;22.05;35.89
4570;BME280;2297;51.442;6.996;2023-06-10T07:05:25;100294.47;;;22.09;35.76
4570;BME280;2297;51.442;6.996;2023-06-10T07:07:52;100294.13;;;22.14;35.40
4570;BME280;2297;51.442;6.996;2023-06-10T07:10:20;100299.22;;;22.19;35.65
4570;BME280;2297;51.442;6.996;2023-06-10T07:12:47;100297.06;;;22.24;35.51
4570;BME280;2297;51.442;6.996;2023-06-10T07:15:14;100295.34;;;22.23;35.20
4570;BME280;2297;51.442;6.996;2023-06-10T07:17:41;100292.97;;;22.31;35.23
4570;BME280;2297;51.442;6.996;2023-06-10T07:20:11;100300.91;;;22.46;35.20
4570;BME280;2297;51.442;6.996;2023-06-10T07:22:38;100294.34;;;22.50;35.08
4570;BME280;2297;51.442;6.996;2023-06-10T07:25:06;100298.81;;;22.62;35.20
4570;BME280;2297;51.442;6.996;2023-06-10T07:27:32;100298.63;;;22.65;34.97
4570;BME280;2297;51.442;6.996;2023-06-10T07:30:01;100294.41;;;22.74;34.68
4570;BME280;2297;51.442;6.996;2023-06-10T07:32:28;100293.97;;;22.80;34.91
4570;BME280;2297;51.442;6.996;2023-06-10T07:34:54;100290.84;;;22.86;34.59
4570;BME280;2297;51.442;6.996;2023-06-10T07:37:23;100290.50;;;22.91;34.92
4570;BME280;2297;51.442;6.996;2023-06-10T07:39:49;100289.81;;;23.00;34.70
4570;BME280;2297;51.442;6.996;2023-06-10T07:42:16;100293.78;;;23.07;34.65
4570;BME280;2297;51.442;6.996;2023-06-10T07:44:42;100288.94;;;23.13;34.38
4570;BME280;2297;51.442;6.996;2023-06-10T07:47:09;100292.63;;;23.23;34.01
4570;BME280;2297;51.442;6.996;2023-06-10T07:49:36;100281.28;;;23.31;33.88
4570;BME280;2297;51.442;6.996;2023-06-10T07:52:03;100280.00;;;23.36;33.39
4570;BME280;2297;51.442;6.996;2023-06-10T07:54:31;100286.66;;;23.43;33.59
4570;BME280;2297;51.442;6.996;2023-06-10T07:56:57;100290.31;;;23.42;33.79
4570;BME280;2297;51.442;6.996;2023-06-10T07:59:24;100287.03;;;23.50;33.62
4570;BME280;2297;51.442;6.996;2023-06-10T08:01:52;100288.41;;;23.56;34.04
4570;BME280;2297;51.442;6.996;2023-06-10T08:04:19;100290.38;;;23.65;33.72
4570;BME280;2297;51.442;6.996;2023-06-10T08:06:45;100292.50;;;23.73;33.69
4570;BME280;2297;51.442;6.996;2023-06-10T08:09:12;100297.06;;;23.84;33.80
4570;BME280;2297;51.442;6.996;2023-06-10T08:11:40;100290.94;;;23.82;34.10
4570;BME280;2297;51.442;6.996;2023-06-10T08:14:06;100296.72;;;23.88;33.78
4570;BME280;2297;51.442;6.996;2023-06-10T08:16:33;100298.94;;;23.95;33.63
4570;BME280;2297;51.442;6.996;2023-06-10T08:19:00;100297.56;;;23.89;33.48
4570;BME280;2297;51.442;6.996;2023-06-10T08:21:26;100298.06;;;23.94;33.35
4570;BME280;2297;51.442;6.996;2023-06-10T08:23:54;100296.53;;;24.03;33.28
4570;BME280;2297;51.442;6.996;2023-06-10T08:26:21;100295.91;;;24.11;33.08
4570;BME280;2297;51.442;6.996;2023-06-10T08:28:49;100307.06;;;24.17;33.12
4570;BME280;2297;51.442;6.996;2023-06-10T08:31:15;100304.78;;;24.24;32.95
4570;BME280;2297;51.442;6.996;2023-06-10T08:33:42;100302.56;;;24.18;33.27
4570;BME280;2297;51.442;6.996;2023-06-10T08:36:09;100301.84;;;24.27;32.96
4570;BME280;2297;51.442;6.996;2023-06-10T08:38:35;100305.88;;;24.33;32.69
4570;BME280;2297;51.442;6.996;2023-06-10T08:41:05;100317.53;;;24.33;33.16
4570;BME280;2297;51.442;6.996;2023-06-10T08:43:34;100307.72;;;24.43;33.21
4570;BME280;2297;51.442;6.996;2023-06-10T08:46:07;100307.72;;;24.55;32.78
4570;BME280;2297;51.442;6.996;2023-06-10T08:48:54;100305.56;;;24.60;33.56
4570;BME280;2297;51.442;6.996;2023-06-10T08:51:23;100306.03;;;24.65;33.09
4570;BME280;2297;51.442;6.996;2023-06-10T08:53:54;100302.34;;;24.78;32.84
4570;BME280;2297;51.442;6.996;2023-06-10T08:56:27;100303.31;;;24.88;32.52
4570;BME280;2297;51.442;6.996;2023-06-10T08:58:55;100301.09;;;24.82;33.05
4570;BME280;2297;51.442;6.996;2023-06-10T09:01:24;100290.03;;;24.85;32.95
4570;BME280;2297;51.442;6.996;2023-06-10T09:03:52;100294.94;;;24.91;32.13
4570;BME280;2297;51.442;6.996;2023-06-10T09:06:19;100303.03;;;25.02;32.26
4570;BME280;2297;51.442;6.996;2023-06-10T09:08:46;100295.41;;;25.19;32.35
4570;BME280;2297;51.442;6.996;2023-06-10T09:11:13;100296.72;;;25.24;32.09
4570;BME280;2297;51.442;6.996;2023-06-10T09:13:39;100291.94;;;25.28;32.37
4570;BME280;2297;51.442;6.996;2023-06-10T09:16:06;100296.28;;;25.40;32.46
4570;BME280;2297;51.442;6.996;2023-06-10T09:18:34;100295.78;;;25.47;31.68
4570;BME280;2297;51.442;6.996;2023-06-10T09:21:01;100289.88;;;25.53;32.32
4570;BME280;2297;51.442;6.996;2023-06-10T09:23:28;100291.94;;;25.61;31.88
4570;BME280;2297;51.442;6.996;2023-06-10T09:25:58;100290.53;;;25.66;32.16
4570;BME280;2297;51.442;6.996;2023-06-10T09:28:25;100295.19;;;25.76;32.29
4570;BME280;2297;51.442;6.996;2023-06-10T09:31:03;100289.78;;;25.76;32.24
4570;BME280;2297;51.442;6.996;2023-06-10T09:33:30;100292.16;;;25.90;31.88
4570;BME280;2297;51.442;6.996;2023-06-10T09:36:01;100291.88;;;25.93;32.11
4570;BME280;2297;51.442;6.996;2023-06-10T09:38:33;100297.34;;;26.03;31.55
4570;BME280;2297;51.442;6.996;2023-06-10T09:41:00;100289.16;;;26.14;30.79
4570;BME280;2297;51.442;6.996;2023-06-10T09:43:38;100293.75;;;26.23;30.85
4570;BME280;2297;51.442;6.996;2023-06-10T09:46:05;100297.00;;;26.38;30.69
4570;BME280;2297;51.442;6.996;2023-06-10T09:48:34;100294.72;;;26.34;30.66
4570;BME280;2297;51.442;6.996;2023-06-10T09:51:08;100285.09;;;26.51;30.49
4570;BME280;2297;51.442;6.996;2023-06-10T09:53:35;100289.03;;;26.47;30.32
4570;BME280;2297;51.442;6.996;2023-06-10T09:56:02;100288.50;;;26.53;30.19
4570;BME280;2297;51.442;6.996;2023-06-10T09:58:36;100286.25;;;26.68;30.13
4570;BME280;2297;51.442;6.996;2023-06-10T10:01:10;100285.41;;;26.67;29.80
4570;BME280;2297;51.442;6.996;2023-06-10T10:03:44;100283.31;;;26.71;29.77
4570;BME280;2297;51.442;6.996;2023-06-10T10:06:13;100278.72;;;26.71;29.57
4570;BME280;2297;51.442;6.996;2023-06-10T10:08:40;100280.31;;;26.84;29.64
4570;BME280;2297;51.442;6.996;2023-06-10T10:11:07;100275.78;;;26.84;29.52
4570;BME280;2297;51.442;6.996;2023-06-10T10:13:34;100276.94;;;26.92;29.18
4570;BME280;2297;51.442;6.996;2023-06-10T10:16:04;100280.97;;;26.97;29.54
4570;BME280;2297;51.442;6.996;2023-06-10T10:18:33;100282.09;;;27.14;29.13
4570;BME280;2297;51.442;6.996;2023-06-10T10:21:06;100278.13;;;27.28;28.79
4570;BME280;2297;51.442;6.996;2023-06-10T10:23:40;100274.16;;;27.32;29.45
4570;BME280;2297;51.442;6.996;2023-06-10T10:26:11;100281.44;;;27.32;28.97
4570;BME280;2297;51.442;6.996;2023-06-10T10:28:41;100271.41;;;27.42;28.92
4570;BME280;2297;51.442;6.996;2023-06-10T10:31:12;100277.31;;;27.47;28.91
4570;BME280;2297;51.442;6.996;2023-06-10T10:33:51;100272.75;;;27.48;28.56
4570;BME280;2297;51.442;6.996;2023-06-10T10:36:19;100268.75;;;27.52;28.01
4570;BME280;2297;51.442;6.996;2023-06-10T10:38:47;100275.00;;;27.62;28.01
4570;BME280;2297;51.442;6.996;2023-06-10T10:41:14;100273.59;;;27.68;28.22
4570;BME280;2297;51.442;6.996;2023-06-10T10:43:42;100274.69;;;27.75;28.04
4570;BME280;2297;51.442;6.996;2023-06-10T10:46:12;100268.13;;;27.87;28.14
4570;BME280;2297;51.442;6.996;2023-06-10T10:48:40;100273.00;;;27.84;28.30
4570;BME280;2297;51.442;6.996;2023-06-10T10:51:07;100267.78;;;28.00;28.16
4570;BME280;2297;51.442;6.996;2023-06-10T10:53:34;100250.97;;;28.06;27.27
4570;BME280;2297;51.442;6.996;2023-06-10T10:56:07;100260.78;;;28.17;26.91
4570;BME280;2297;51.442;6.996;2023-06-10T10:58:34;100260.28;;;28.32;26.56
4570;BME280;2297;51.442;6.996;2023-06-10T11:01:10;100262.03;;;28.23;26.94
4570;BME280;2297;51.442;6.996;2023-06-10T11:03:42;100252.16;;;28.32;27.00
4570;BME280;2297;51.442;6.996;2023-06-10T11:06:13;100249.19;;;28.25;26.55
4570;BME280;2297;51.442;6.996;2023-06-10T11:08:47;100249.09;;;28.45;26.78
4570;BME280;2297;51.442;6.996;2023-06-10T11:11:19;100243.91;;;28.51;26.77
4570;BME280;2297;51.442;6.996;2023-06-10T11:13:57;100243.03;;;28.61;26.17
4570;BME280;2297;51.442;6.996;2023-06-10T11:16:26;100248.72;;;28.67;26.12
4570;BME280;2297;51.442;6.996;2023-06-10T11:18:54;100245.84;;;28.69;25.91
4570;BME280;2297;51.442;6.996;2023-06-10T11:21:23;100236.63;;;28.80;25.46
4570;BME280;2297;51.442;6.996;2023-06-10T11:23:50;100233.69;;;28.91;25.71
4570;BME280;2297;51.442;6.996;2023-06-10T11:26:30;100238.81;;;28.94;25.75
4570;BME280;2297;51.442;6.996;2023-06-10T11:29:02;100243.00;;;28.88;25.37
4570;BME280;2297;51.442;6.996;2023-06-10T11:31:30;100239.72;;;28.85;25.26
4570;BME280;2297;51.442;6.996;2023-06-10T11:33:58;100238.19;;;29.00;25.15
4570;BME280;2297;51.442;6.996;2023-06-10T11:36:26;100230.03;;;29.00;25.21
4570;BME280;2297;51.442;6.996;2023-06-10T11:38:55;100229.16;;;29.10;25.31
4570;BME280;2297;51.442;6.996;2023-06-10T11:41:25;100234.16;;;29.04;25.05
4570;BME280;2297;51.442;6.996;2023-06-10T11:43:52;100225.66;;;28.89;26.05
4570;BME280;2297;51.442;6.996;2023-06-10T11:46:21;100229.00;;;29.01;25.32
4570;BME280;2297;51.442;6.996;2023-06-10T11:48:51;100225.94;;;29.32;24.41
4570;BME280;2297;51.442;6.996;2023-06-10T11:51:19;100225.28;;;29.38;24.07
4570;BME280;2297;51.442;6.996;2023-06-10T11:53:48;100215.56;;;29.54;24.09
4570;BME280;2297;51.442;6.996;2023-06-10T11:56:19;100226.53;;;29.62;24.55
4570;BME280;2297;51.442;6.996;2023-06-10T11:58:52;100216.72;;;29.69;24.20
4570;BME280;2297;51.442;6.996;2023-06-10T12:01:20;100222.28;;;29.42;23.86
4570;BME280;2297;51.442;6.996;2023-06-10T12:03:50;100221.13;;;29.70;24.09
4570;BME280;2297;51.442;6.996;2023-06-10T12:06:22;100215.44;;;29.82;23.95
4570;BME280;2297;51.442;6.996;2023-06-10T12:08:49;100216.81;;;29.86;23.80
4570;BME280;2297;51.442;6.996;2023-06-10T12:11:15;100214.84;;;29.96;23.82
4570;BME280;2297;51.442;6.996;2023-06-10T12:13:45;100217.97;;;30.10;23.53
4570;BME280;2297;51.442;6.996;2023-06-10T12:16:16;100209.69;;;30.19;23.50
4570;BME280;2297;51.442;6.996;2023-06-10T12:18:45;100209.19;;;30.16;22.88
4570;BME280;2297;51.442;6.996;2023-06-10T12:21:19;100214.66;;;30.16;23.49
4570;BME280;2297;51.442;6.996;2023-06-10T12:24:06;100206.00;;;30.29;23.23
4570;BME280;2297;51.442;6.996;2023-06-10T12:26:37;100216.25;;;30.35;23.19
4570;BME280;2297;51.442;6.996;2023-06-10T12:29:28;100211.41;;;30.20;23.03
4570;BME280;2297;51.442;6.996;2023-06-10T12:32:00;100205.53;;;30.42;23.18
4570;BME280;2297;51.442;6.996;2023-06-10T12:34:32;100198.56;;;30.39;22.45
4570;BME280;2297;51.442;6.996;2023-06-10T12:36:59;100203.53;;;30.52;23.02
4570;BME280;2297;51.442;6.996;2023-06-10T12:39:26;100201.22;;;30.74;23.19
4570;BME280;2297;51.442;6.996;2023-06-10T12:41:52;100197.50;;;30.83;22.63
4570;BME280;2297;51.442;6.996;2023-06-10T12:44:28;100189.16;;;30.84;22.85
4570;BME280;2297;51.442;6.996;2023-06-10T12:46:55;100182.19;;;31.07;22.73
4570;BME280;2297;51.442;6.996;2023-06-10T12:49:23;100191.72;;;31.02;22.48
4570;BME280;2297;51.442;6.996;2023-06-10T12:51:52;100190.03;;;30.93;22.38
4570;BME280;2297;51.442;6.996;2023-06-10T12:54:19;100176.06;;;31.13;22.71
4570;BME280;2297;51.442;6.996;2023-06-10T12:56:45;100182.25;;;31.23;22.46
4570;BME280;2297;51.442;6.996;2023-06-10T12:59:13;100189.38;;;31.24;22.43
4570;BME280;2297;51.442;6.996;2023-06-10T13:01:39;100183.25;;;31.14;22.23
4570;BME280;2297;51.442;6.996;2023-06-10T13:04:06;100184.44;;;31.28;22.14
4570;BME280;2297;51.442;6.996;2023-06-10T13:06:34;100185.63;;;31.42;21.75
4570;BME280;2297;51.442;6.996;2023-06-10T13:09:05;100187.47;;;31.58;21.61
4570;BME280;2297;51.442;6.996;2023-06-10T13:11:33;100191.03;;;31.75;21.88
4570;BME280;2297;51.442;6.996;2023-06-10T13:14:00;100179.72;;;31.94;21.95
4570;BME280;2297;51.442;6.996;2023-06-10T13:16:28;100176.13;;;32.02;22.19